Time;durP1;ratioP1;P1;durP2;ratioP2;P2;SDS_P1;SDS_P2;PMS_P1;PMS_P2;Temp;Humidity;BMP_temperature;BMP_pressure;BME280_temperature;BME280_humidity;BME280_pressure;Samples;Min_cycle;Max_cycle;Signal;HPM_P1;HPM_P2
2023/03/29 00:00:15;;;;;;;33.00;14.20;;;;;;;-4.84;76.99;99223.38;104805;1263;96652;-68
2023/03/29 00:02:47;;;;;;;25.70;11.30;;;;;;;-4.87;77.01;99223.22;104804;1262;99161;-67
2023/03/29 00:05:24;;;;;;;28.10;12.10;;;;;;;-4.89;76.98;99220.52;104510;1274;107077;-67
2023/03/29 00:08:00;;;;;;;28.80;11.50;;;;;;;-4.90;77.08;99215.33;104551;1277;97666;-67
2023/03/29 00:10:28;;;;;;;32.10;12.50;;;;;;;-4.91;77.20;99217.42;104619;1266;96917;-67
2023/03/29 00:12:56;;;;;;;41.60;17.60;;;;;;;-4.91;77.35;99216.56;104843;1266;110913;-67
2023/03/29 00:15:24;;;;;;;41.90;16.80;;;;;;;-4.93;77.40;99219.15;104811;1279;96588;-67
2023/03/29 00:17:51;;;;;;;46.60;18.40;;;;;;;-4.89;77.93;99215.13;104567;1267;108251;-68
2023/03/29 00:20:19;;;;;;;53.30;20.60;;;;;;;-4.84;78.08;99213.02;104788;1273;96773;-67
2023/03/29 00:22:46;;;;;;;48.60;17.90;;;;;;;-4.77;77.79;99217.41;104772;1271;96641;-67
2023/03/29 00:25:13;;;;;;;46.50;17.10;;;;;;;-4.73;77.64;99215.99;104872;1262;97343;-68
2023/03/29 00:27:40;;;;;;;42.80;16.60;;;;;;;-4.67;77.47;99215.31;104614;1273;96565;-68
2023/03/29 00:30:09;;;;;;;39.30;15.10;;;;;;;-4.62;77.46;99212.82;104763;1271;97096;-72
2023/03/29 00:32:36;;;;;;;48.60;18.00;;;;;;;-4.56;77.69;99214.45;104454;1275;96565;-70
2023/03/29 00:35:05;;;;;;;45.00;17.70;;;;;;;-4.53;77.74;99215.07;104796;1267;96561;-68
2023/03/29 00:37:32;;;;;;;52.60;18.10;;;;;;;-4.54;77.52;99211.08;104911;1273;111498;-68
2023/03/29 00:39:59;;;;;;;56.60;18.80;;;;;;;-4.56;77.62;99206.83;104897;1265;99377;-68
2023/03/29 00:42:26;;;;;;;38.00;14.00;;;;;;;-4.55;77.68;99205.53;104831;1272;97849;-68
2023/03/29 00:45:03;;;;;;;37.80;14.50;;;;;;;-4.55;77.71;99201.23;104869;1260;96569;-68
2023/03/29 00:47:36;;;;;;;45.10;15.70;;;;;;;-4.59;77.48;99199.45;104787;1272;97858;-68
2023/03/29 00:50:13;;;;;;;34.60;13.80;;;;;;;-4.63;77.62;99196.23;104591;1259;111471;-68
2023/03/29 00:52:43;;;;;;;30.60;13.60;;;;;;;-4.70;77.89;99198.88;104816;1273;100395;-68
2023/03/29 00:55:20;;;;;;;32.80;13.30;;;;;;;-4.75;78.12;99197.55;104647;1265;107632;-68
2023/03/29 00:57:51;;;;;;;40.00;15.20;;;;;;;-4.80;78.29;99198.22;104812;1265;97861;-68
2023/03/29 01:00:21;;;;;;;38.10;15.80;;;;;;;-4.85;78.38;99196.52;104787;1272;96637;-68
2023/03/29 01:02:58;;;;;;;33.80;13.10;;;;;;;-4.86;78.51;99192.44;104784;1265;110905;-68
2023/03/29 01:05:32;;;;;;;35.60;13.20;;;;;;;-4.88;78.54;99184.82;104901;1263;97980;-68
2023/03/29 01:08:17;;;;;;;37.10;14.10;;;;;;;-4.92;78.43;99183.00;104805;1264;108766;-68
2023/03/29 01:10:49;;;;;;;47.00;16.00;;;;;;;-4.97;78.59;99183.29;104828;1275;96570;-68
2023/03/29 01:13:51;;;;;;;38.50;14.60;;;;;;;-5.02;78.99;99179.98;104857;1264;96540;-68
2023/03/29 01:16:32;;;;;;;40.40;14.00;;;;;;;-5.07;79.18;99179.52;104811;1272;110776;-67
2023/03/29 01:19:09;;;;;;;41.10;14.20;;;;;;;-5.09;79.26;99175.27;104542;1278;98940;-68
2023/03/29 01:22:13;;;;;;;32.00;12.00;;;;;;;-5.08;79.46;99173.95;104504;1276;108697;-68
2023/03/29 01:24:57;;;;;;;30.30;11.80;;;;;;;-5.05;80.08;99174.79;104527;1268;97328;-69
2023/03/29 01:27:46;;;;;;;33.90;13.60;;;;;;;-5.01;79.92;99172.42;104575;1264;97423;-67
2023/03/29 01:30:22;;;;;;;38.30;15.80;;;;;;;-4.97;80.21;99163.97;104612;1273;111969;-67
2023/03/29 01:33:02;;;;;;;47.00;16.50;;;;;;;-4.91;80.03;99162.69;104565;1267;98723;-67
2023/03/29 01:35:38;;;;;;;38.00;15.50;;;;;;;-4.85;79.76;99160.39;104483;1279;107469;-68
2023/03/29 01:38:14;;;;;;;33.60;15.10;;;;;;;-4.82;79.60;99154.20;104617;1272;96567;-69
2023/03/29 01:40:41;;;;;;;45.10;17.20;;;;;;;-4.80;79.36;99157.05;104728;1263;97575;-68
2023/03/29 01:43:55;;;;;;;41.00;16.90;;;;;;;-4.78;79.49;99151.58;104922;1260;97351;-68
2023/03/29 01:46:34;;;;;;;30.40;15.00;;;;;;;-4.78;79.21;99153.27;104057;1271;98102;-67
2023/03/29 01:49:41;;;;;;;31.60;14.00;;;;;;;-4.81;79.14;99149.67;103966;1274;108195;-67
2023/03/29 01:52:21;;;;;;;28.10;12.40;;;;;;;-4.84;79.55;99146.92;104013;1279;96559;-70
2023/03/29 01:55:01;;;;;;;29.70;13.20;;;;;;;-4.85;79.73;99151.85;104145;1276;96765;-70
2023/03/29 01:57:32;;;;;;;38.10;15.30;;;;;;;-4.90;79.38;99155.04;104184;1285;110131;-68
2023/03/29 02:00:07;;;;;;;43.40;18.10;;;;;;;-4.94;79.45;99157.16;104306;1271;99707;-67
2023/03/29 02:02:38;;;;;;;34.70;14.80;;;;;;;-5.02;79.16;99155.92;104204;1270;109919;-68
2023/03/29 02:05:08;;;;;;;36.60;15.60;;;;;;;-5.10;79.36;99152.00;104040;1281;96731;-67
2023/03/29 02:07:37;;;;;;;30.30;13.90;;;;;;;-5.16;79.67;99153.73;104204;1279;96750;-68
2023/03/29 02:10:07;;;;;;;33.60;13.00;;;;;;;-5.20;80.26;99156.76;104089;1274;109958;-68
2023/03/29 02:12:34;;;;;;;28.50;12.50;;;;;;;-5.21;80.41;99153.95;104164;1269;99209;-68
2023/03/29 02:15:05;;;;;;;31.60;13.20;;;;;;;-5.24;80.36;99157.42;104067;1280;108897;-68
2023/03/29 02:17:32;;;;;;;31.70;14.70;;;;;;;-5.28;80.36;99154.23;104379;1274;96578;-68
2023/03/29 02:20:21;;;;;;;37.20;15.20;;;;;;;-5.33;80.38;99154.34;104698;1263;96513;-68
2023/03/29 02:22:56;;;;;;;38.20;14.70;;;;;;;-5.39;80.31;99154.96;104622;1273;109805;-67
2023/03/29 02:25:24;;;;;;;31.40;13.30;;;;;;;-5.45;80.56;99155.48;104587;1264;99995;-68
2023/03/29 02:27:52;;;;;;;32.30;14.00;;;;;;;-5.48;80.72;99150.92;104538;1275;107674;-67
2023/03/29 02:30:21;;;;;;;35.50;13.90;;;;;;;-5.54;80.71;99151.76;104718;1264;97897;-67
2023/03/29 02:33:00;;;;;;;37.50;16.90;;;;;;;-5.56;80.63;99150.92;104469;1265;97441;-68
2023/03/29 02:35:37;;;;;;;44.00;18.60;;;;;;;-5.54;80.77;99152.70;104498;1266;110194;-67
2023/03/29 02:38:09;;;;;;;42.20;19.50;;;;;;;-5.54;80.86;99149.25;104744;1265;100378;-68
2023/03/29 02:40:39;;;;;;;38.30;19.20;;;;;;;-5.50;80.95;99151.73;104183;1271;420644;-67
2023/03/29 02:43:09;;;;;;;37.90;17.60;;;;;;;-5.52;80.85;99157.93;104543;1272;96554;-67
2023/03/29 02:45:38;;;;;;;34.30;18.00;;;;;;;-5.54;80.98;99159.23;104602;1273;96921;-67
2023/03/29 02:48:10;;;;;;;38.40;17.50;;;;;;;-5.57;80.72;99160.11;104365;1277;107901;-67
2023/03/29 02:50:40;;;;;;;44.30;19.50;;;;;;;-5.58;80.77;99161.40;104603;1263;99186;-68
2023/03/29 02:53:37;;;;;;;46.60;20.40;;;;;;;-5.61;80.84;99158.20;104752;1264;108802;-68
2023/03/29 02:56:04;;;;;;;53.00;23.50;;;;;;;-5.60;81.19;99158.16;104485;1265;96782;-67
2023/03/29 02:58:31;;;;;;;52.10;22.20;;;;;;;-5.56;81.36;99158.31;104633;1264;96559;-68
2023/03/29 03:01:00;;;;;;;51.30;22.70;;;;;;;-5.53;81.25;99155.22;104576;1264;96985;-68
2023/03/29 03:03:28;;;;;;;42.10;18.60;;;;;;;-5.53;81.14;99154.02;104745;1267;99212;-67
2023/03/29 03:05:55;;;;;;;47.60;18.20;;;;;;;-5.56;81.13;99153.75;104801;1270;97491;-67
2023/03/29 03:08:28;;;;;;;46.30;15.60;;;;;;;-5.60;81.12;99155.41;104824;1264;96591;-67
2023/03/29 03:10:58;;;;;;;29.70;13.40;;;;;;;-5.60;81.63;99154.30;104539;1272;96486;-67
2023/03/29 03:13:30;;;;;;;40.60;15.60;;;;;;;-5.57;81.81;99153.58;104732;1263;110599;-69
2023/03/29 03:15:57;;;;;;;36.40;14.60;;;;;;;-5.55;81.76;99154.08;104714;1272;96574;-69
2023/03/29 03:18:24;;;;;;;41.20;16.90;;;;;;;-5.58;81.40;99153.95;104599;1264;97173;-69
2023/03/29 03:20:57;;;;;;;43.90;19.50;;;;;;;-5.68;81.92;99152.64;104811;1272;96550;-69
2023/03/29 03:23:25;;;;;;;33.40;16.10;;;;;;;-5.82;82.47;99151.85;104648;1263;96585;-67
2023/03/29 03:25:54;;;;;;;31.80;16.40;;;;;;;-5.93;82.49;99150.42;104688;1273;110947;-67
2023/03/29 03:28:23;;;;;;;38.80;18.80;;;;;;;-6.00;82.26;99148.67;104539;1264;97892;-68
2023/03/29 03:30:49;;;;;;;46.10;19.30;;;;;;;-6.02;82.47;99151.73;104703;1264;108544;-69
2023/03/29 03:33:18;;;;;;;45.20;20.90;;;;;;;-6.03;82.55;99151.49;104444;1264;96545;-68
2023/03/29 03:35:46;;;;;;;48.00;22.20;;;;;;;-6.03;82.29;99152.14;104659;1267;98266;-68
2023/03/29 03:38:14;;;;;;;49.90;24.70;;;;;;;-6.00;82.24;99151.34;104781;1263;109586;-70
2023/03/29 03:40:41;;;;;;;56.50;26.70;;;;;;;-5.97;82.26;99153.25;104871;1269;97359;-68
2023/03/29 03:43:09;;;;;;;50.80;22.20;;;;;;;-5.94;82.09;99150.90;104637;1269;97875;-67
2023/03/29 03:45:36;;;;;;;56.80;23.20;;;;;;;-5.87;82.69;99151.65;104662;1266;96714;-68
2023/03/29 03:48:04;;;;;;;42.30;19.90;;;;;;;-5.80;82.53;99155.77;104788;1273;97912;-68
2023/03/29 03:50:32;;;;;;;41.80;18.00;;;;;;;-5.73;82.55;99154.34;104854;1260;110928;-68
2023/03/29 03:52:59;;;;;;;36.90;17.40;;;;;;;-5.63;82.96;99152.57;104539;1274;98693;-68
2023/03/29 03:55:28;;;;;;;39.60;17.00;;;;;;;-5.53;82.73;99149.95;104824;1273;96681;-68
2023/03/29 03:57:56;;;;;;;34.10;16.30;;;;;;;-5.44;82.61;99145.58;104645;1265;96644;-67
2023/03/29 04:00:23;;;;;;;30.80;15.40;;;;;;;-5.34;82.81;99144.34;104888;1260;96645;-67
2023/03/29 04:02:55;;;;;;;35.90;13.50;;;;;;;-5.29;82.32;99145.61;104841;1264;96568;-68
2023/03/29 04:05:22;;;;;;;28.50;13.10;;;;;;;-5.26;82.08;99142.58;104856;1264;99309;-67
2023/03/29 04:07:49;;;;;;;28.90;14.50;;;;;;;-5.25;81.96;99147.44;104880;1264;96603;-67
2023/03/29 04:10:16;;;;;;;38.00;15.70;;;;;;;-5.30;81.84;99146.17;104879;1271;96546;-68
2023/03/29 04:12:49;;;;;;;32.50;15.10;;;;;;;-5.45;81.80;99144.75;104846;1263;97004;-68
2023/03/29 04:15:19;;;;;;;43.80;20.40;;;;;;;-5.60;81.76;99147.91;104860;1264;111096;-67
2023/03/29 04:17:46;;;;;;;43.30;19.50;;;;;;;-5.68;82.56;99144.52;104568;1267;98219;-67
2023/03/29 04:20:13;;;;;;;42.90;19.00;;;;;;;-5.72;82.61;99142.48;104826;1262;96556;-67
2023/03/29 04:22:40;;;;;;;35.90;16.10;;;;;;;-5.72;82.80;99141.04;104728;1263;96610;-67
2023/03/29 04:25:10;;;;;;;71.30;29.90;;;;;;;-5.74;82.69;99139.38;104647;1260;96529;-67
2023/03/29 04:27:37;;;;;;;123.00;46.20;;;;;;;-5.77;82.89;99138.00;104657;1267;109959;-68
2023/03/29 04:30:06;;;;;;;94.60;34.00;;;;;;;-5.79;83.23;99137.87;104894;1264;98152;-68
2023/03/29 04:32:33;;;;;;;54.40;21.70;;;;;;;-5.81;83.17;99140.04;104514;1276;107600;-68
2023/03/29 04:35:01;;;;;;;35.40;16.10;;;;;;;-5.83;83.03;99140.34;104751;1264;97495;-70
2023/03/29 04:37:28;;;;;;;32.10;14.00;;;;;;;-5.84;83.03;99139.48;104724;1261;97793;-70
2023/03/29 04:39:59;;;;;;;37.60;15.60;;;;;;;-5.83;82.96;99137.27;104567;1264;96642;-68
2023/03/29 04:42:26;;;;;;;29.70;12.00;;;;;;;-5.79;83.22;99136.46;104520;1267;98220;-67
2023/03/29 04:44:53;;;;;;;23.70;12.50;;;;;;;-5.73;83.56;99135.65;104593;1267;107867;-67
2023/03/29 04:47:20;;;;;;;29.80;13.60;;;;;;;-5.65;83.13;99135.38;104866;1270;96647;-68
2023/03/29 04:49:47;;;;;;;30.00;12.60;;;;;;;-5.56;83.65;99139.55;104577;1274;96653;-67
2023/03/29 04:52:14;;;;;;;26.80;12.60;;;;;;;-5.45;83.23;99142.11;104635;1261;96850;-68
2023/03/29 04:54:41;;;;;;;30.10;13.50;;;;;;;-5.35;83.07;99143.36;104680;1272;96565;-68
2023/03/29 04:57:08;;;;;;;25.40;11.90;;;;;;;-5.24;82.90;99142.19;104826;1264;96570;-68
2023/03/29 04:59:35;;;;;;;24.80;10.90;;;;;;;-5.14;82.55;99144.87;104804;1263;96477;-68
2023/03/29 05:02:03;;;;;;;23.60;12.30;;;;;;;-5.07;82.51;99139.30;104553;1272;96653;-69
2023/03/29 05:04:31;;;;;;;27.30;11.10;;;;;;;-5.01;82.22;99138.30;104604;1264;97171;-68
2023/03/29 05:07:00;;;;;;;30.80;12.70;;;;;;;-4.96;82.14;99138.57;104643;1266;108061;-68
2023/03/29 05:09:28;;;;;;;30.00;11.60;;;;;;;-4.92;82.06;99141.45;104648;1258;96642;-69
2023/03/29 05:11:55;;;;;;;24.10;12.10;;;;;;;-4.89;81.88;99146.57;104630;1264;97568;-67
2023/03/29 05:14:22;;;;;;;26.10;11.80;;;;;;;-4.86;81.79;99145.14;104599;1270;96589;-68
2023/03/29 05:16:49;;;;;;;27.20;13.00;;;;;;;-4.84;81.90;99142.68;104703;1258;96670;-68
2023/03/29 05:19:16;;;;;;;24.10;12.10;;;;;;;-4.81;81.64;99136.10;104742;1261;96651;-68
2023/03/29 05:21:43;;;;;;;27.80;11.40;;;;;;;-4.77;81.41;99140.60;104541;1270;96568;-68
2023/03/29 05:24:11;;;;;;;16.40;6.90;;;;;;;-4.75;81.39;99136.45;104845;1264;97837;-67
2023/03/29 05:26:38;;;;;;;24.80;9.00;;;;;;;-4.72;81.21;99140.08;104823;1273;96568;-67
2023/03/29 05:29:07;;;;;;;26.90;9.30;;;;;;;-4.68;81.14;99143.52;104836;1263;97750;-68
2023/03/29 05:31:38;;;;;;;8.70;4.10;;;;;;;-4.63;81.24;99141.13;104719;1257;108602;-68
2023/03/29 05:34:06;;;;;;;14.90;7.00;;;;;;;-4.58;81.09;99144.52;104506;1264;97785;-68
2023/03/29 05:36:32;;;;;;;19.60;9.80;;;;;;;-4.51;80.98;99150.63;104932;1263;97130;-69
2023/03/29 05:39:00;;;;;;;19.60;7.90;;;;;;;-4.42;80.67;99150.81;104783;1271;97326;-68
2023/03/29 05:41:28;;;;;;;25.70;10.80;;;;;;;-4.33;80.40;99153.66;104630;1263;99234;-68
2023/03/29 05:43:55;;;;;;;37.60;14.20;;;;;;;-4.22;80.29;99150.83;104904;1264;107388;-67
2023/03/29 05:46:22;;;;;;;11.20;4.40;;;;;;;-4.11;79.91;99149.90;104890;1275;96622;-68
2023/03/29 05:48:49;;;;;;;24.40;10.20;;;;;;;-4.02;78.62;99143.81;104942;1263;96661;-66
2023/03/29 05:51:17;;;;;;;20.20;8.60;;;;;;;-3.93;78.63;99144.98;104756;1261;97149;-68
2023/03/29 05:53:45;;;;;;;22.40;9.80;;;;;;;-3.86;78.48;99141.17;104889;1273;98220;-66
2023/03/29 05:56:14;;;;;;;29.40;10.50;;;;;;;-3.79;78.39;99141.50;104611;1264;96495;-68
2023/03/29 05:58:42;;;;;;;39.40;13.40;;;;;;;-3.70;78.49;99138.05;104680;1263;96574;-68
2023/03/29 06:01:13;;;;;;;31.30;10.90;;;;;;;-3.61;78.73;99143.45;104753;1261;97078;-72
2023/03/29 06:03:40;;;;;;;43.30;13.80;;;;;;;-3.49;78.39;99142.94;104595;1267;108128;-69
2023/03/29 06:06:09;;;;;;;27.40;13.30;;;;;;;-3.40;78.17;99142.27;104956;1261;99641;-68
2023/03/29 06:08:36;;;;;;;24.00;10.30;;;;;;;-3.29;78.22;99138.06;104612;1264;107838;-67
2023/03/29 06:11:07;;;;;;;25.70;8.90;;;;;;;-3.16;78.10;99145.20;104594;1264;97097;-68
2023/03/29 06:13:35;;;;;;;;;;;;;;;-3.02;77.88;99142.19;104796;1263;96615;-68
2023/03/29 06:16:04;;;;;;;33.80;12.10;;;;;;;-2.89;77.72;99140.84;104569;1273;110598;-68
2023/03/29 06:18:32;;;;;;;16.20;7.30;;;;;;;-2.74;77.58;99140.42;104925;1262;98560;-68
2023/03/29 06:21:01;;;;;;;37.00;12.30;;;;;;;-2.60;76.64;99137.78;104505;1277;107155;-68
2023/03/29 06:23:29;;;;;;;20.60;6.50;;;;;;;-2.44;76.16;99142.56;104889;1262;97868;-67
2023/03/29 06:25:58;;;;;;;35.30;14.00;;;;;;;-2.32;75.01;99147.19;104825;1261;96568;-67
2023/03/29 06:28:26;;;;;;;22.90;9.30;;;;;;;-2.18;74.29;99151.20;104438;1258;110274;-69
2023/03/29 06:30:55;;;;;;;12.50;5.90;;;;;;;-2.07;73.74;99153.46;104915;1263;97134;-69
2023/03/29 06:33:24;;;;;;;21.50;9.00;;;;;;;-1.92;72.31;99156.83;104603;1260;107150;-68
2023/03/29 06:35:51;;;;;;;29.30;10.20;;;;;;;-1.75;71.90;99153.75;104627;1264;97696;-69
2023/03/29 06:38:19;;;;;;;13.90;6.70;;;;;;;-1.58;70.77;99156.50;104743;1257;97771;-68
2023/03/29 06:40:47;;;;;;;19.20;7.40;;;;;;;-1.45;70.20;99158.61;104679;1257;110446;-68
2023/03/29 06:43:14;;;;;;;63.20;19.00;;;;;;;-1.34;70.65;99161.36;104735;1262;98232;-69
2023/03/29 06:45:41;;;;;;;18.60;8.20;;;;;;;-1.19;71.81;99163.26;104910;1263;96563;-69
2023/03/29 06:48:10;;;;;;;19.40;8.70;;;;;;;-1.07;69.35;99160.48;104921;1263;96612;-70
2023/03/29 06:50:37;;;;;;;25.30;11.30;;;;;;;-0.98;69.04;99166.38;104925;1263;96544;-68
2023/03/29 06:53:04;;;;;;;17.90;6.50;;;;;;;-0.91;68.59;99166.76;104881;1264;96645;-68
2023/03/29 06:55:31;;;;;;;17.80;7.40;;;;;;;-0.84;68.27;99168.17;104882;1261;96618;-69
2023/03/29 06:57:59;;;;;;;13.10;6.20;;;;;;;-0.74;68.40;99167.41;104934;1257;97893;-68
2023/03/29 07:00:29;;;;;;;22.70;8.80;;;;;;;-0.68;67.65;99167.23;104857;1274;96657;-67
2023/03/29 07:02:59;;;;;;;22.30;10.00;;;;;;;-0.55;67.73;99165.23;104908;1273;96980;-68
2023/03/29 07:05:27;;;;;;;13.90;5.90;;;;;;;-0.45;67.71;99165.73;104645;1264;110363;-68
2023/03/29 07:08:10;;;;;;;17.40;7.10;;;;;;;-0.32;68.16;99160.58;104962;1261;99212;-68
2023/03/29 07:10:40;;;;;;;15.00;6.90;;;;;;;-0.18;66.43;99159.63;104786;1271;108739;-70
2023/03/29 07:13:12;;;;;;;13.20;5.70;;;;;;;-0.11;65.30;99159.14;104610;1263;96555;-68
2023/03/29 07:15:40;;;;;;;13.00;5.50;;;;;;;-0.02;65.90;99159.50;104902;1262;96555;-68
2023/03/29 07:18:09;;;;;;;9.70;4.90;;;;;;;0.11;64.90;99163.52;104818;1275;110890;-70
2023/03/29 07:20:37;;;;;;;11.00;4.60;;;;;;;0.21;64.57;99164.95;104755;1257;99257;-69
2023/03/29 07:23:06;;;;;;;14.90;6.90;;;;;;;0.38;65.41;99163.93;104616;1261;108335;-69
2023/03/29 07:25:35;;;;;;;9.80;5.50;;;;;;;0.59;66.66;99163.43;104645;1260;96725;-68
2023/03/29 07:28:03;;;;;;;23.50;12.50;;;;;;;0.77;64.25;99164.98;104845;1263;96548;-69
2023/03/29 07:30:31;;;;;;;20.80;8.50;;;;;;;0.83;65.83;99163.55;104630;1261;109981;-68
2023/03/29 07:32:58;;;;;;;15.50;6.00;;;;;;;0.97;65.00;99159.52;104967;1257;99258;-69
2023/03/29 07:35:27;;;;;;;33.90;12.30;;;;;;;1.08;64.12;99160.48;104827;1263;108955;-69
2023/03/29 07:37:56;;;;;;;10.30;3.60;;;;;;;1.21;64.71;99162.11;104618;1261;96703;-69
2023/03/29 07:40:24;;;;;;;19.90;7.60;;;;;;;1.30;62.92;99162.44;104672;1257;97342;-67
2023/03/29 07:42:54;;;;;;;15.00;6.40;;;;;;;1.38;62.88;99166.81;104549;1257;110097;-67
2023/03/29 07:45:23;;;;;;;18.20;8.10;;;;;;;1.52;63.63;99165.36;104507;1264;98274;-67
2023/03/29 07:47:58;;;;;;;27.90;9.30;;;;;;;1.75;64.74;99159.83;104709;1274;108570;-68
2023/03/29 07:50:31;;;;;;;14.60;5.90;;;;;;;1.93;62.78;99152.56;104867;1261;96657;-67
2023/03/29 07:53:00;;;;;;;28.90;9.90;;;;;;;1.99;61.57;99161.70;104527;1265;96619;-68
2023/03/29 07:55:27;;;;;;;16.50;5.90;;;;;;;2.12;62.86;99158.48;104575;1257;110033;-68
2023/03/29 07:57:55;;;;;;;37.40;11.10;;;;;;;2.24;62.84;99158.14;104920;1268;99069;-68
2023/03/29 08:00:23;;;;;;;23.10;8.90;;;;;;;2.42;63.09;99154.36;104637;1259;108579;-67
2023/03/29 08:02:52;;;;;;;13.10;5.30;;;;;;;2.61;62.34;99150.85;104645;1261;96558;-67
2023/03/29 08:05:23;;;;;;;15.30;6.90;;;;;;;2.77;61.03;99145.82;104514;1265;96655;-68
2023/03/29 08:08:06;;;;;;;10.80;4.80;;;;;;;2.98;61.65;99145.39;104905;1262;110929;-66
2023/03/29 08:10:35;;;;;;;18.70;6.40;;;;;;;3.08;60.05;99142.09;105109;1264;98947;-67
2023/03/29 08:13:07;;;;;;;10.70;4.50;;;;;;;3.14;59.24;99137.89;104729;1267;107643;-65
2023/03/29 08:15:37;;;;;;;6.70;3.20;;;;;;;3.26;58.64;99139.11;104863;1262;96574;-66
2023/03/29 08:18:06;;;;;;;27.70;9.20;;;;;;;3.41;59.68;99139.86;104939;1263;96502;-67
2023/03/29 08:20:34;;;;;;;24.10;7.00;;;;;;;3.71;61.30;99140.17;104848;1264;108834;-66
2023/03/29 08:23:01;;;;;;;9.60;3.90;;;;;;;3.96;57.97;99134.82;104812;1262;97458;-65
2023/03/29 08:25:29;;;;;;;8.70;4.30;;;;;;;4.00;56.12;99132.85;104910;1262;97461;-67
2023/03/29 08:27:56;;;;;;;10.00;4.60;;;;;;;4.13;56.30;99131.05;104923;1261;96587;-66
2023/03/29 08:30:24;;;;;;;19.10;7.50;;;;;;;4.35;57.76;99130.34;104577;1263;96491;-66
2023/03/29 08:32:52;;;;;;;11.00;6.00;;;;;;;4.68;58.01;99132.66;104634;1262;96549;-66
2023/03/29 08:35:21;;;;;;;13.40;5.80;;;;;;;5.03;56.43;99125.84;104815;1261;99380;-66
2023/03/29 08:37:48;;;;;;;13.70;5.30;;;;;;;5.39;56.50;99129.48;104689;1262;108487;-67
2023/03/29 08:40:21;;;;;;;19.20;7.50;;;;;;;5.71;55.37;99123.30;104889;1262;96655;-69
2023/03/29 08:43:00;;;;;;;12.60;5.70;;;;;;;6.09;55.52;99115.83;104569;1262;96639;-69
2023/03/29 08:45:52;;;;;;;11.50;4.90;;;;;;;6.47;54.74;99121.53;104870;1262;110855;-67
2023/03/29 08:48:41;;;;;;;10.00;3.90;;;;;;;6.75;50.97;99120.49;104960;1262;99210;-67
2023/03/29 08:51:18;;;;;;;11.30;5.10;;;;;;;6.81;50.66;99114.42;104935;1262;108793;-68
2023/03/29 08:53:51;;;;;;;8.30;3.60;;;;;;;7.06;49.65;99113.02;104622;1264;98190;-68
2023/03/29 08:56:28;;;;;;;11.60;5.40;;;;;;;7.24;49.73;99117.25;104564;1261;99302;-68
2023/03/29 08:59:00;;;;;;;21.00;7.40;;;;;;;7.58;49.91;99115.32;104561;1267;111752;-69
2023/03/29 09:01:33;;;;;;;10.10;4.30;;;;;;;7.96;48.15;99113.30;104648;1259;99230;-69
2023/03/29 09:04:24;;;;;;;10.60;4.80;;;;;;;8.25;48.43;99109.47;104752;1259;108889;-69
2023/03/29 09:06:51;;;;;;;17.70;6.60;;;;;;;8.48;47.61;99104.18;104846;1263;97861;-68
2023/03/29 09:09:21;;;;;;;22.50;8.40;;;;;;;8.62;46.45;99100.52;104460;1275;99103;-69
2023/03/29 09:12:13;;;;;;;9.90;4.10;;;;;;;8.82;47.06;99101.70;104791;1263;112238;-69
2023/03/29 09:15:07;;;;;;;7.80;4.30;;;;;;;8.86;44.09;99098.66;104738;1265;99204;-69
2023/03/29 09:17:34;;;;;;;8.00;3.30;;;;;;;8.85;43.13;99097.62;104640;1272;107517;-69
2023/03/29 09:20:12;;;;;;;9.90;5.10;;;;;;;8.83;41.82;99093.02;104750;1259;97903;-71
2023/03/29 09:22:45;;;;;;;12.70;5.70;;;;;;;9.16;44.62;99088.17;104449;1264;97977;-69
2023/03/29 09:25:20;;;;;;;11.00;4.50;;;;;;;9.52;44.12;99085.44;104884;1264;111887;-69
2023/03/29 09:27:49;;;;;;;17.30;6.90;;;;;;;9.91;44.12;99079.16;104725;1265;98116;-69
2023/03/29 09:30:34;;;;;;;15.90;5.40;;;;;;;10.39;42.99;99075.66;104787;1264;107465;-70
2023/03/29 09:33:11;;;;;;;5.40;2.70;;;;;;;10.64;40.70;99071.59;104833;1265;97913;-71
2023/03/29 09:35:45;;;;;;;12.30;5.20;;;;;;;10.65;39.30;99068.61;104866;1270;98165;-72
2023/03/29 09:38:16;;;;;;;8.20;5.30;;;;;;;10.57;39.04;99075.02;104750;1264;111682;-72
2023/03/29 09:40:56;;;;;;;9.90;4.40;;;;;;;10.59;40.52;99071.86;104827;1264;99492;-73
2023/03/29 09:43:34;;;;;;;19.00;7.70;;;;;;;10.82;40.44;99072.13;104753;1261;108664;-70
2023/03/29 09:46:10;;;;;;;10.60;5.80;;;;;;;11.30;39.58;99072.84;104869;1264;97911;-71
2023/03/29 09:48:42;;;;;;;11.10;4.90;;;;;;;11.63;39.30;99070.93;104898;1264;97830;-71
2023/03/29 09:51:12;;;;;;;22.10;9.00;;;;;;;11.76;37.03;99076.73;104857;1263;112480;-72
2023/03/29 09:53:39;;;;;;;13.70;5.20;;;;;;;11.80;36.24;99070.61;104694;1264;99483;-72
2023/03/29 09:56:07;;;;;;;23.00;8.80;;;;;;;11.83;34.21;99069.92;104651;1263;99067;-70
2023/03/29 09:58:37;;;;;;;8.50;3.40;;;;;;;11.82;34.90;99068.80;104410;1267;97924;-71
2023/03/29 10:01:20;;;;;;;9.30;6.10;;;;;;;11.90;33.88;99068.77;104684;1259;97910;-72
2023/03/29 10:03:51;;;;;;;13.00;5.80;;;;;;;12.04;34.85;99061.44;104593;1264;112213;-65
2023/03/29 10:06:25;;;;;;;12.20;5.30;;;;;;;12.32;34.51;99063.29;104866;1264;99576;-71
2023/03/29 10:08:55;;;;;;;5.70;2.10;;;;;;;12.35;32.84;99061.73;104833;1261;109009;-67
2023/03/29 10:11:35;;;;;;;11.70;6.10;;;;;;;12.20;32.76;99066.24;104506;1267;98078;-70
2023/03/29 10:14:15;;;;;;;6.20;3.00;;;;;;;12.40;33.82;99064.79;104731;1265;98065;-68
2023/03/29 10:16:44;;;;;;;12.90;5.40;;;;;;;12.80;35.44;99059.73;104527;1281;110995;-69
2023/03/29 10:19:21;;;;;;;10.30;4.40;;;;;;;13.26;35.08;99058.17;104590;1267;98166;-70
2023/03/29 10:21:50;;;;;;;8.00;3.30;;;;;;;13.75;34.19;99056.49;104829;1261;107473;-68
2023/03/29 10:24:23;;;;;;;4.20;2.60;;;;;;;13.79;32.18;99057.68;104787;1259;99087;-68
2023/03/29 10:26:56;;;;;;;5.40;2.00;;;;;;;13.46;31.67;99052.36;104802;1264;98028;-69
2023/03/29 10:29:25;;;;;;;11.70;5.20;;;;;;;13.17;33.58;99049.91;104782;1264;112074;-69
2023/03/29 10:31:53;;;;;;;9.90;5.10;;;;;;;13.25;33.11;99046.40;104553;1267;98415;-68
2023/03/29 10:34:24;;;;;;;7.20;3.60;;;;;;;13.21;32.56;99050.34;104622;1259;108665;-68
2023/03/29 10:37:00;;;;;;;17.20;8.20;;;;;;;13.14;33.60;99051.81;104619;1265;98032;-69
2023/03/29 10:39:32;;;;;;;81.30;43.20;;;;;;;13.52;33.78;99046.14;104566;1267;97987;-69
2023/03/29 10:42:03;;;;;;;50.40;28.20;;;;;;;13.75;33.58;99043.00;104774;1265;112273;-69
2023/03/29 10:44:33;;;;;;;69.10;27.70;;;;;;;13.67;33.27;99036.58;104592;1264;99263;-69
2023/03/29 10:47:21;;;;;;;;;;;;;;;13.84;34.08;99029.76;104836;1264;108559;-69
2023/03/29 10:49:54;;;;;;;35.60;16.20;;;;;;;14.06;33.31;99027.42;104791;1259;97890;-69
2023/03/29 10:52:24;;;;;;;7.00;3.80;;;;;;;14.11;31.16;99022.11;104590;1268;98014;-69
2023/03/29 10:54:55;;;;;;;6.10;3.00;;;;;;;14.25;33.10;99021.73;104565;1267;110547;-69
2023/03/29 10:57:51;;;;;;;14.30;9.60;;;;;;;14.36;33.08;99020.60;104612;1263;99180;-68
2023/03/29 11:00:41;;;;;;;11.30;6.30;;;;;;;14.61;32.31;99016.90;104707;1275;108937;-70
2023/03/29 11:03:27;;;;;;;14.10;7.70;;;;;;;14.82;32.47;99013.33;104556;1272;99271;-68
2023/03/29 11:06:20;;;;;;;23.50;9.70;;;;;;;15.06;32.69;99007.77;104729;1261;99106;-70
2023/03/29 11:09:01;;;;;;;9.20;4.50;;;;;;;15.23;32.33;98997.74;104599;1259;111880;-69
2023/03/29 11:11:53;;;;;;;8.80;4.30;;;;;;;15.56;32.43;98993.81;104752;1263;99561;-68
2023/03/29 11:15:05;;;;;;;5.50;2.20;;;;;;;15.94;31.91;98985.60;104559;1259;108241;-69
2023/03/29 11:17:49;;;;;;;6.40;2.40;;;;;;;15.77;32.41;98975.70;104500;1274;98048;-69
2023/03/29 11:20:20;;;;;;;3.70;2.30;;;;;;;16.21;31.22;98977.75;104669;1262;97838;-70
2023/03/29 11:23:19;;;;;;;4.00;2.30;;;;;;;16.12;28.53;98973.25;104671;1261;112344;-69
2023/03/29 11:26:02;;;;;;;5.40;3.60;;;;;;;15.84;28.49;98966.44;104874;1259;99287;-68
2023/03/29 11:28:44;;;;;;;5.20;3.20;;;;;;;15.60;30.27;98965.96;104785;1264;108812;-68
2023/03/29 11:31:29;;;;;;;16.20;9.10;;;;;;;15.79;31.36;98964.08;104782;1262;98799;-68
2023/03/29 11:34:03;;;;;;;4.20;2.50;;;;;;;16.15;31.12;98956.08;104575;1259;98027;-68
2023/03/29 11:36:52;;;;;;;7.40;4.60;;;;;;;16.18;31.11;98948.69;104809;1262;111082;-68